createdAt,value
2023-09-01T00:00:18.813Z,515.7
2023-09-01T00:01:20.914Z,515.9
2023-09-01T00:02:22.621Z,515.9
2023-09-01T00:03:25.081Z,516
2023-09-01T00:04:26.982Z,515.9
2023-09-01T00:05:28.770Z,515.9
2023-09-01T00:06:30.714Z,516.1
2023-09-01T00:07:32.484Z,515.6
2023-09-01T00:08:34.306Z,515.5
2023-09-01T00:09:35.998Z,515.6
2023-09-01T00:10:37.749Z,515.4
2023-09-01T00:11:39.458Z,515.2
2023-09-01T00:12:41.220Z,515.3
2023-09-01T00:13:43.336Z,515
2023-09-01T00:14:45.222Z,515
2023-09-01T00:15:46.984Z,515.1
2023-09-01T00:16:49.088Z,514.8
2023-09-01T00:17:51.481Z,514.8
2023-09-01T00:18:53.440Z,515
2023-09-01T00:19:55.169Z,514.9
2023-09-01T00:20:56.965Z,515.1
2023-09-01T00:21:58.700Z,515
2023-09-01T00:23:00.457Z,514.8
2023-09-01T00:24:02.323Z,514.9
2023-09-01T00:25:04.071Z,514.7
2023-09-01T00:26:05.886Z,514.9
2023-09-01T00:27:07.620Z,514.7
2023-09-01T00:28:09.355Z,515.1
2023-09-01T00:29:11.246Z,514.9
2023-09-01T00:30:13.061Z,514.6
2023-09-01T00:31:14.994Z,514.9
2023-09-01T00:32:16.857Z,514.8
2023-09-01T00:33:18.629Z,514.7
2023-09-01T00:34:20.433Z,515
2023-09-01T00:35:22.242Z,514.7
2023-09-01T00:36:23.951Z,515
2023-09-01T00:37:25.704Z,514.8
2023-09-01T00:38:27.490Z,514.4
2023-09-01T00:39:29.262Z,514.7
2023-09-01T00:40:30.945Z,514.5
2023-09-01T00:41:32.694Z,514.7
2023-09-01T00:42:34.409Z,514.6
2023-09-01T00:43:36.152Z,514.8
2023-09-01T00:44:38.032Z,514.4
2023-09-01T00:45:39.980Z,514.4
2023-09-01T00:46:42.343Z,514.7
2023-09-01T00:47:44.373Z,514.9
2023-09-01T00:48:48.512Z,514.7
2023-09-01T00:49:50.371Z,515.1
2023-09-01T00:50:52.413Z,515.2
2023-09-01T00:51:54.174Z,515.2
2023-09-01T00:52:55.915Z,515.4
2023-09-01T00:53:57.626Z,515.4
2023-09-01T00:54:59.432Z,515.3
2023-09-01T00:56:01.218Z,515.4
2023-09-01T00:57:02.969Z,515.7
2023-09-01T00:58:04.849Z,515.3
2023-09-01T00:59:06.748Z,515.4
2023-09-01T01:00:08.618Z,515.1
2023-09-01T01:01:10.342Z,515.1
2023-09-01T01:02:12.097Z,515.1
2023-09-01T01:03:14.655Z,515.1
2023-09-01T01:04:16.609Z,514.7
2023-09-01T01:05:18.528Z,514.7
2023-09-01T01:06:20.261Z,515
2023-09-01T01:07:22.055Z,514.8
2023-09-01T01:08:23.803Z,514.8
2023-09-01T01:09:25.653Z,514.8
2023-09-01T01:10:30.500Z,514.8
2023-09-01T01:11:32.275Z,514.8
2023-09-01T01:12:34.035Z,514.9
2023-09-01T01:13:35.792Z,515
2023-09-01T01:14:37.610Z,514.6
2023-09-01T01:15:39.374Z,514.7
2023-09-01T01:16:41.109Z,514.5
2023-09-01T01:17:43.018Z,514.9
2023-09-01T01:18:44.879Z,514.9
2023-09-01T01:19:46.574Z,515.1
2023-09-01T01:20:48.332Z,515
2023-09-01T01:21:50.051Z,515
2023-09-01T01:22:51.752Z,514.8
2023-09-01T01:23:53.599Z,515
2023-09-01T01:24:55.377Z,514.8
2023-09-01T01:25:57.222Z,514.7
2023-09-01T01:26:58.960Z,514.8
2023-09-01T01:28:00.768Z,514.6
2023-09-01T01:29:02.520Z,514.8
2023-09-01T01:30:04.202Z,514.6
2023-09-01T01:31:06.138Z,514.7
2023-09-01T01:32:07.890Z,515
2023-09-01T01:33:09.870Z,515.1
2023-09-01T01:34:11.891Z,515.3
2023-09-01T01:35:13.851Z,515.5
2023-09-01T01:36:15.872Z,515.4
2023-09-01T01:37:17.675Z,515.4
2023-09-01T01:38:19.415Z,515.8
2023-09-01T01:39:21.188Z,515.9
2023-09-01T01:40:22.938Z,515.9
2023-09-01T01:41:24.688Z,516
2023-09-01T01:42:26.414Z,516.2
2023-09-01T01:43:28.165Z,516
2023-09-01T01:44:29.865Z,516.2
2023-09-01T01:45:31.726Z,516.4
2023-09-01T01:46:33.607Z,516.1
2023-09-01T01:47:35.448Z,516.1
2023-09-01T01:48:37.300Z,516.4
2023-09-01T01:49:39.095Z,516.4
2023-09-01T01:50:41.292Z,516
2023-09-01T01:51:43.180Z,516
2023-09-01T01:52:44.964Z,515.9
2023-09-01T01:53:46.811Z,515.6
2023-09-01T01:54:48.549Z,516.1
2023-09-01T01:55:50.320Z,516
2023-09-01T01:56:52.196Z,516.1
2023-09-01T01:57:53.968Z,516.1
2023-09-01T01:58:55.987Z,516.7
2023-09-01T01:59:57.964Z,516.5
2023-09-01T02:01:00.329Z,516.2
2023-09-01T02:02:02.251Z,516
2023-09-01T02:03:04.404Z,516
2023-09-01T02:04:06.132Z,515.7
2023-09-01T02:05:08.119Z,515.8
2023-09-01T02:06:09.861Z,515.9
2023-09-01T02:07:11.629Z,515.9
2023-09-01T02:08:14.980Z,515.8
2023-09-01T02:09:16.972Z,515.6
2023-09-01T02:10:18.919Z,516
2023-09-01T02:11:20.643Z,515.5
2023-09-01T02:12:22.507Z,515.6
2023-09-01T02:13:24.240Z,515.6
2023-09-01T02:14:25.999Z,515.8
2023-09-01T02:15:27.782Z,516
2023-09-01T02:16:29.484Z,515.8
2023-09-01T02:17:31.337Z,515.9
2023-09-01T02:18:33.664Z,516.4
2023-09-01T02:19:35.483Z,516.3
2023-09-01T02:20:37.218Z,516.2
2023-09-01T02:21:38.917Z,516.2
2023-09-01T02:22:40.641Z,515.9
2023-09-01T02:23:42.337Z,516.1
2023-09-01T02:24:44.214Z,516.2
2023-09-01T02:25:46.341Z,516.1
2023-09-01T02:26:50.806Z,516.3
2023-09-01T02:27:52.577Z,516.1
2023-09-01T02:28:54.293Z,516.2
2023-09-01T02:29:56.081Z,515.9
2023-09-01T02:30:58.030Z,516
2023-09-01T02:31:59.908Z,515.7
2023-09-01T02:33:01.977Z,515.7
2023-09-01T02:34:03.800Z,515.4
2023-09-01T02:35:05.502Z,515.6
2023-09-01T02:36:07.264Z,515.3
2023-09-01T02:37:08.970Z,515.2
2023-09-01T02:38:10.698Z,515.4
2023-09-01T02:39:12.455Z,515.3
2023-09-01T02:40:14.392Z,515.5
2023-09-01T02:41:16.180Z,515.2
2023-09-01T02:42:17.949Z,515.2
2023-09-01T02:43:19.784Z,515.1
2023-09-01T02:44:21.474Z,515.1
2023-09-01T02:45:23.212Z,514.9
2023-09-01T02:46:25.231Z,514.8
2023-09-01T02:47:27.358Z,514.8
2023-09-01T02:48:29.410Z,514.8
2023-09-01T02:49:31.170Z,515
2023-09-01T02:50:35.658Z,515.1
2023-09-01T02:51:37.404Z,514.9
2023-09-01T02:52:39.096Z,514.9
2023-09-01T02:53:40.904Z,514.9
2023-09-01T02:54:42.670Z,515
2023-09-01T02:55:44.406Z,514.7
2023-09-01T02:56:46.124Z,515
2023-09-01T02:57:47.908Z,514.8
2023-09-01T02:58:49.679Z,515.3
2023-09-01T02:59:51.384Z,515.3
2023-09-01T03:00:53.389Z,515.7
2023-09-01T03:01:55.266Z,515.6
2023-09-01T03:02:59.814Z,515.5
2023-09-01T03:04:01.613Z,515.4
2023-09-01T03:05:03.374Z,515.1
2023-09-01T03:06:05.117Z,515.3
2023-09-01T03:07:06.853Z,515.2
2023-09-01T03:08:08.625Z,515.4
2023-09-01T03:09:10.305Z,515
2023-09-01T03:10:12.081Z,515.3
2023-09-01T03:11:13.835Z,515.1
2023-09-01T03:12:15.652Z,515
2023-09-01T03:13:17.398Z,514.9
2023-09-01T03:14:19.183Z,514.8
2023-09-01T03:15:20.908Z,514.6
2023-09-01T03:16:22.852Z,514.6
2023-09-01T03:17:24.817Z,514.8
2023-09-01T03:18:26.758Z,515
2023-09-01T03:19:28.455Z,514.7
2023-09-01T03:20:30.177Z,514.8
2023-09-01T03:21:32.179Z,514.6
2023-09-01T03:22:34.021Z,514.6
2023-09-01T03:23:36.308Z,514.6
2023-09-01T03:24:38.244Z,514.9
2023-09-01T03:25:40.041Z,514.4
2023-09-01T03:26:41.757Z,514.6
2023-09-01T03:27:43.619Z,514.2
2023-09-01T03:28:45.494Z,514
2023-09-01T03:29:47.330Z,514.1
2023-09-01T03:30:49.137Z,514.1
2023-09-01T03:31:51.103Z,514.1
2023-09-01T03:32:53.499Z,514.2
2023-09-01T03:33:55.488Z,514.1
2023-09-01T03:34:57.229Z,514.1
2023-09-01T03:35:58.957Z,514.5
2023-09-01T03:37:00.685Z,513.9
2023-09-01T03:38:02.516Z,513.9
2023-09-01T03:39:04.207Z,514
2023-09-01T03:40:05.944Z,513.7
2023-09-01T03:41:07.671Z,513.9
2023-09-01T03:42:09.438Z,513.8
2023-09-01T03:43:11.246Z,513.7
2023-09-01T03:44:12.967Z,513.7
2023-09-01T03:45:14.850Z,513.9
2023-09-01T03:46:16.696Z,514
2023-09-01T03:47:18.459Z,513.7
2023-09-01T03:48:21.894Z,514.1
2023-09-01T03:49:23.717Z,514
2023-09-01T03:50:25.558Z,514.2
2023-09-01T03:51:27.299Z,514.1
2023-09-01T03:52:29.116Z,514
2023-09-01T03:53:30.814Z,513.9
2023-09-01T03:54:35.484Z,513.9
2023-09-01T03:55:39.911Z,513.9
2023-09-01T03:56:41.633Z,513.9
2023-09-01T03:57:43.323Z,514
2023-09-01T03:58:45.054Z,513.8
2023-09-01T03:59:47.860Z,513.9
2023-09-01T04:00:49.648Z,513.6
2023-09-01T04:01:54.203Z,513.5
2023-09-01T04:02:56.102Z,513.5
2023-09-01T04:03:58.259Z,513.6
2023-09-01T04:05:00.157Z,513.6
2023-09-01T04:06:01.928Z,513.4
2023-09-01T04:07:03.662Z,513.1
2023-09-01T04:08:05.528Z,513.1
2023-09-01T04:09:07.265Z,513.1
2023-09-01T04:10:09.025Z,513
2023-09-01T04:11:10.890Z,513.1
2023-09-01T04:12:12.695Z,513.2
2023-09-01T04:13:14.465Z,512.7
2023-09-01T04:14:16.234Z,512.7
2023-09-01T04:15:18.026Z,512.6
2023-09-01T04:16:20.204Z,512.6
2023-09-01T04:17:22.089Z,512.4
2023-09-01T04:18:23.799Z,512.7
2023-09-01T04:19:25.669Z,512.4
2023-09-01T04:20:27.510Z,512
2023-09-01T04:21:29.227Z,512.1
2023-09-01T04:22:30.985Z,511.7
2023-09-01T04:23:32.710Z,511.6
2023-09-01T04:24:34.407Z,511.5
2023-09-01T04:25:36.161Z,511.5
2023-09-01T04:26:37.897Z,511.5
2023-09-01T04:27:39.798Z,511.2
2023-09-01T04:28:41.481Z,511.4
2023-09-01T04:30:11.346Z,511.3
2023-09-01T04:31:13.492Z,511.5
2023-09-01T04:32:15.260Z,511.4
2023-09-01T04:33:17.472Z,511.4
2023-09-01T04:34:19.262Z,511.6
2023-09-01T04:35:20.968Z,511.3
2023-09-01T04:36:48.147Z,511.1
2023-09-01T04:37:52.649Z,511.3
2023-09-01T04:38:54.452Z,511.3
2023-09-01T04:39:56.571Z,510.9
2023-09-01T04:40:58.625Z,511
2023-09-01T04:42:00.529Z,511.1
2023-09-01T04:43:02.364Z,511.3
2023-09-01T04:44:04.067Z,511.3
2023-09-01T04:45:05.927Z,511.7
2023-09-01T04:46:07.979Z,511.5
2023-09-01T04:47:09.773Z,511.6
2023-09-01T04:48:11.572Z,511.6
2023-09-01T04:49:13.426Z,511.6
2023-09-01T04:50:15.297Z,511.3
2023-09-01T04:51:17.002Z,510.9
2023-09-01T04:52:43.745Z,510.6
2023-09-01T04:53:45.546Z,510.5
2023-09-01T04:54:47.321Z,510.1
2023-09-01T04:55:49.015Z,510.3
2023-09-01T04:56:50.778Z,510.3
2023-09-01T04:57:52.593Z,510.2
2023-09-01T04:58:54.392Z,510.2
2023-09-01T04:59:56.128Z,509.9
2023-09-01T05:00:58.157Z,510
2023-09-01T05:02:00.015Z,509.6
2023-09-01T05:03:02.445Z,509.5
2023-09-01T05:04:04.391Z,509.7
2023-09-01T05:05:06.124Z,509.6
2023-09-01T05:06:07.893Z,509.5
2023-09-01T05:07:09.631Z,509.6
2023-09-01T05:08:11.382Z,509.1
2023-09-01T05:09:14.170Z,509.1
2023-09-01T05:10:15.996Z,508.8
2023-09-01T05:11:17.772Z,508.6
2023-09-01T05:12:19.495Z,508.2
2023-09-01T05:13:21.257Z,508.2
2023-09-01T05:14:22.982Z,507.9
2023-09-01T05:15:24.815Z,507.8
2023-09-01T05:16:26.945Z,507.7
2023-09-01T05:17:29.099Z,507.3
2023-09-01T05:18:30.949Z,507.4
2023-09-01T05:19:32.902Z,507.3
2023-09-01T05:20:34.696Z,507.6
2023-09-01T05:21:36.509Z,507.4
2023-09-01T05:22:38.637Z,507.4
2023-09-01T05:23:40.495Z,507.4
2023-09-01T05:24:42.214Z,507.4
2023-09-01T05:25:43.943Z,507.4
2023-09-01T05:26:45.724Z,507.4
2023-09-01T05:27:47.518Z,507.5
2023-09-01T05:28:49.266Z,507.4
2023-09-01T05:29:50.991Z,507.8
2023-09-01T05:30:53.044Z,507.7
2023-09-01T05:31:55.002Z,507.6
2023-09-01T05:32:57.077Z,507.9
2023-09-01T05:33:58.986Z,507.7
2023-09-01T05:35:00.802Z,508.2
2023-09-01T05:36:02.577Z,508
2023-09-01T05:37:04.368Z,507.8
2023-09-01T05:38:06.173Z,507.6
2023-09-01T05:39:07.884Z,507.3
2023-09-01T05:40:09.643Z,507.3
2023-09-01T05:41:11.336Z,507.2
2023-09-01T05:42:13.164Z,506.9
2023-09-01T05:43:14.912Z,507
2023-09-01T05:44:16.658Z,507
2023-09-01T05:45:18.389Z,507.4
2023-09-01T05:46:20.491Z,507.2
2023-09-01T05:47:22.547Z,507.5
2023-09-01T05:48:24.347Z,507.2
2023-09-01T05:49:26.188Z,507.2
2023-09-01T05:50:28.099Z,507.1
2023-09-01T05:51:29.961Z,507.5
2023-09-01T05:52:31.730Z,507.6
2023-09-01T05:53:33.450Z,507.4
2023-09-01T05:54:35.208Z,507.1
2023-09-01T05:55:37.035Z,507.3
2023-09-01T05:56:38.758Z,507.3
2023-09-01T05:57:40.726Z,507.1
2023-09-01T05:58:42.503Z,506.9
2023-09-01T05:59:44.256Z,506.9
2023-09-01T06:00:49.040Z,507.2
2023-09-01T06:01:51.227Z,507.1
2023-09-01T06:02:53.509Z,507.4
2023-09-01T06:03:55.496Z,507.6
2023-09-01T06:04:57.326Z,507.2
2023-09-01T06:05:59.127Z,507.3
2023-09-01T06:07:00.929Z,507.1
2023-09-01T06:08:02.700Z,507.2
2023-09-01T06:09:04.439Z,507.4
2023-09-01T06:10:06.249Z,507.2
2023-09-01T06:11:07.982Z,507
2023-09-01T06:12:09.781Z,507.1
2023-09-01T06:13:11.537Z,507
2023-09-01T06:14:13.260Z,507
2023-09-01T06:15:15.010Z,507
2023-09-01T06:16:17.072Z,506.9
2023-09-01T06:17:46.901Z,506.8
2023-09-01T06:18:49.110Z,506.6
2023-09-01T06:19:50.841Z,506.7
2023-09-01T06:20:52.573Z,506.4
2023-09-01T06:21:54.351Z,506.4
2023-09-01T06:22:56.194Z,505.9
2023-09-01T06:23:57.968Z,505.9
2023-09-01T06:24:59.753Z,506.3
2023-09-01T06:26:01.437Z,506.2
2023-09-01T06:27:03.197Z,506
2023-09-01T06:28:04.988Z,506.1
2023-09-01T06:29:06.723Z,506.3
2023-09-01T06:30:08.729Z,506
2023-09-01T06:31:10.859Z,505.8
2023-09-01T06:32:12.607Z,505.6
2023-09-01T06:33:14.685Z,505.8
2023-09-01T06:34:16.573Z,505.4
2023-09-01T06:35:18.391Z,505.2
2023-09-01T06:36:20.202Z,505.6
2023-09-01T06:37:22.101Z,505.5
2023-09-01T06:38:23.799Z,505.2
2023-09-01T06:39:25.598Z,505.2
2023-09-01T06:40:27.349Z,504.9
2023-09-01T06:41:29.065Z,504.8
2023-09-01T06:42:30.793Z,504.7
2023-09-01T06:43:32.522Z,504.7
2023-09-01T06:44:34.271Z,504.5
2023-09-01T06:45:36.447Z,504.2
2023-09-01T06:46:41.041Z,504.3
2023-09-01T06:47:43.096Z,504.3
2023-09-01T06:48:45.136Z,504.2
2023-09-01T06:49:46.855Z,504.1
2023-09-01T06:50:48.793Z,504.2
2023-09-01T06:51:50.570Z,504.2
2023-09-01T06:52:52.486Z,504.2
2023-09-01T06:53:54.189Z,504.3
2023-09-01T06:54:55.993Z,504.3
2023-09-01T06:55:57.723Z,504.2
2023-09-01T06:56:59.574Z,504.1
2023-09-01T06:58:01.635Z,504
2023-09-01T06:59:03.418Z,504
2023-09-01T07:00:05.306Z,504.2
2023-09-01T07:01:07.275Z,504.2
2023-09-01T07:02:09.097Z,504.2
2023-09-01T07:03:11.092Z,504.2
2023-09-01T07:04:13.312Z,503.9
2023-09-01T07:05:15.191Z,504.2
2023-09-01T07:06:16.896Z,503.9
2023-09-01T07:07:18.672Z,504.2
2023-09-01T07:08:20.443Z,504
2023-09-01T07:09:22.243Z,504.1
2023-09-01T07:10:24.012Z,504.2
2023-09-01T07:11:25.715Z,504.2
2023-09-01T07:12:27.520Z,504.1
2023-09-01T07:13:29.228Z,504.1
2023-09-01T07:14:30.950Z,504.1
2023-09-01T07:15:32.707Z,504.3
2023-09-01T07:16:34.434Z,504.1
2023-09-01T07:17:36.473Z,504
2023-09-01T07:18:38.251Z,504
2023-09-01T07:19:42.552Z,504.2
2023-09-01T07:20:44.268Z,503.9
2023-09-01T07:21:46.008Z,504.1
2023-09-01T07:22:47.799Z,504
2023-09-01T07:23:49.612Z,503.8
2023-09-01T07:24:51.391Z,504
2023-09-01T07:25:53.142Z,504
2023-09-01T07:26:54.833Z,504
2023-09-01T07:27:56.546Z,503.9
2023-09-01T07:28:58.369Z,503.7
2023-09-01T07:30:00.127Z,503.8
2023-09-01T07:31:02.055Z,504.1
2023-09-01T07:32:04.047Z,504.2
2023-09-01T07:33:06.091Z,504.4
2023-09-01T07:34:07.931Z,504.3
2023-09-01T07:35:09.673Z,504.1
2023-09-01T07:36:11.525Z,504
2023-09-01T07:37:13.437Z,504.1
2023-09-01T07:38:16.819Z,504.1
2023-09-01T07:39:18.830Z,504.2
2023-09-01T07:40:20.576Z,504.1
2023-09-01T07:41:22.338Z,504.3
2023-09-01T07:42:24.109Z,504.1
2023-09-01T07:43:25.850Z,503.9
2023-09-01T07:44:27.638Z,504.5
2023-09-01T07:45:29.699Z,504.2
2023-09-01T07:46:31.584Z,504.3
2023-09-01T07:47:33.495Z,504.1
2023-09-01T07:48:35.547Z,504.1
2023-09-01T07:49:37.826Z,504.3
2023-09-01T07:50:39.548Z,504.2
2023-09-01T07:51:41.420Z,504.5
2023-09-01T07:52:43.176Z,504.1
2023-09-01T07:53:44.940Z,504.4
2023-09-01T07:54:46.766Z,504.3
2023-09-01T07:55:48.480Z,504.4
2023-09-01T07:56:50.342Z,504.5
2023-09-01T07:57:52.073Z,504.5
2023-09-01T07:58:53.805Z,504.7
2023-09-01T07:59:55.581Z,505
2023-09-01T08:00:57.534Z,504.8
2023-09-01T08:01:59.298Z,504.9
2023-09-01T08:03:01.692Z,505
2023-09-01T08:04:03.830Z,505.1
2023-09-01T08:05:05.640Z,504.9
2023-09-01T08:06:09.613Z,504.8
2023-09-01T08:07:11.408Z,504.8
2023-09-01T08:08:15.345Z,504.5
2023-09-01T08:09:17.363Z,504.5
2023-09-01T08:10:19.395Z,504.3
2023-09-01T08:11:21.105Z,504.5
2023-09-01T08:12:22.825Z,504.4
2023-09-01T08:13:24.551Z,504.7
2023-09-01T08:14:26.510Z,504.9
2023-09-01T08:15:28.360Z,504.6
2023-09-01T08:16:30.507Z,505.1
2023-09-01T08:17:32.391Z,504.6
2023-09-01T08:18:34.225Z,504.7
2023-09-01T08:19:36.050Z,504.7
2023-09-01T08:20:37.849Z,504.8
2023-09-01T08:21:39.598Z,504.9
2023-09-01T08:22:41.452Z,504.3
2023-09-01T08:23:43.241Z,504.7
2023-09-01T08:24:45.112Z,504.7
2023-09-01T08:25:49.723Z,505
2023-09-01T08:26:51.508Z,504.8
2023-09-01T08:27:53.510Z,505
2023-09-01T08:28:55.362Z,504.9
2023-09-01T08:29:57.256Z,504.9
2023-09-01T08:30:59.299Z,505
2023-09-01T08:32:01.254Z,504.9
2023-09-01T08:33:03.343Z,505.4
2023-09-01T08:34:05.288Z,505.5
2023-09-01T08:35:07.080Z,505.4
2023-09-01T08:36:08.832Z,505.6
2023-09-01T08:37:10.529Z,505.5
2023-09-01T08:38:12.456Z,505.7
2023-09-01T08:39:14.424Z,505.8
2023-09-01T08:40:16.200Z,505.7
2023-09-01T08:41:18.096Z,506.1
2023-09-01T08:42:19.789Z,505.7
2023-09-01T08:43:21.543Z,506.2
2023-09-01T08:44:23.327Z,506
2023-09-01T08:45:25.186Z,505.9
2023-09-01T08:46:27.151Z,506.1
2023-09-01T08:47:29.040Z,506
2023-09-01T08:48:30.810Z,506.5
2023-09-01T08:49:32.545Z,506.2
2023-09-01T08:50:34.356Z,506.7
2023-09-01T08:51:36.051Z,506.5
2023-09-01T08:52:37.793Z,506.5
2023-09-01T08:53:39.577Z,506.2
2023-09-01T08:54:41.332Z,506.5
2023-09-01T08:55:43.090Z,506.3
2023-09-01T08:56:44.886Z,506.5
2023-09-01T08:57:46.620Z,506.3
2023-09-01T08:58:48.363Z,506.6
2023-09-01T08:59:50.186Z,506.6
2023-09-01T09:00:51.970Z,506.6
2023-09-01T09:01:54.062Z,506.6
2023-09-01T09:03:09.765Z,506.8
2023-09-01T09:04:12.348Z,506.8
2023-09-01T09:05:14.253Z,506.8
2023-09-01T09:06:16.006Z,506.6
2023-09-01T09:07:18.078Z,506.9
2023-09-01T09:08:19.879Z,506.8
2023-09-01T09:09:21.705Z,507
2023-09-01T09:10:23.403Z,506.9
2023-09-01T09:11:25.237Z,507
2023-09-01T09:12:27.089Z,507.1
2023-09-01T09:13:28.851Z,506.9
2023-09-01T09:14:57.701Z,507.2
2023-09-01T09:16:00.800Z,507
2023-09-01T09:17:02.596Z,507
2023-09-01T09:18:05.423Z,507
2023-09-01T09:19:08.258Z,506.9
2023-09-01T09:20:10.192Z,506.9
2023-09-01T09:21:11.937Z,507.1
2023-09-01T09:22:13.722Z,507.2
2023-09-01T09:23:15.565Z,507.3
2023-09-01T09:24:23.950Z,507.4
2023-09-01T09:25:25.741Z,507
2023-09-01T09:26:27.459Z,507.5
2023-09-01T09:27:29.251Z,507.5
2023-09-01T09:28:31.832Z,507.7
2023-09-01T09:29:33.820Z,507.8
2023-09-01T09:30:35.620Z,507.9
2023-09-01T09:31:37.599Z,508
2023-09-01T09:32:39.619Z,507.9
2023-09-01T09:33:41.345Z,507.7
2023-09-01T09:34:43.028Z,508
2023-09-01T09:35:44.763Z,508.1
2023-09-01T09:36:46.517Z,507.9
2023-09-01T09:37:48.322Z,508.2
2023-09-01T09:38:50.143Z,508.2
2023-09-01T09:39:51.890Z,508.1
2023-09-01T09:40:53.711Z,508.5
2023-09-01T09:41:55.537Z,508.4
2023-09-01T09:42:57.318Z,508.7
2023-09-01T09:43:59.840Z,508.5
2023-09-01T09:45:01.610Z,508.5
2023-09-01T09:46:03.623Z,508.9
2023-09-01T09:47:05.513Z,509
2023-09-01T09:48:08.126Z,509.2
2023-09-01T09:49:10.181Z,509
2023-09-01T09:50:11.999Z,509.5
2023-09-01T09:51:13.737Z,509.2
2023-09-01T09:52:15.525Z,509
2023-09-01T09:53:17.285Z,509.3
2023-09-01T09:54:18.989Z,509.5
2023-09-01T09:55:20.850Z,509
2023-09-01T09:56:22.719Z,509.4
2023-09-01T09:57:24.405Z,509.3
2023-09-01T09:58:28.693Z,509.5
2023-09-01T09:59:30.459Z,509.1
2023-09-01T10:00:32.198Z,509.6
2023-09-01T10:01:35.406Z,509.5
2023-09-01T10:02:41.423Z,509.4
2023-09-01T10:03:43.425Z,509.4
2023-09-01T10:04:45.183Z,509.7
2023-09-01T10:05:46.909Z,509.7
2023-09-01T10:06:48.709Z,509.7
2023-09-01T10:07:50.502Z,509.8
2023-09-01T10:08:52.233Z,510
2023-09-01T10:09:56.890Z,509.6
2023-09-01T10:10:58.726Z,510.1
2023-09-01T10:12:00.476Z,509.9
2023-09-01T10:13:02.273Z,510.1
2023-09-01T10:14:04.057Z,509.8
2023-09-01T10:15:05.869Z,509.9
2023-09-01T10:16:07.869Z,509.8
2023-09-01T10:17:09.791Z,509.8
2023-09-01T10:18:12.447Z,510
2023-09-01T10:19:14.310Z,510.2
2023-09-01T10:20:16.038Z,509.9
2023-09-01T10:21:17.813Z,509.7
2023-09-01T10:22:19.588Z,509.6
2023-09-01T10:23:21.329Z,510
2023-09-01T10:24:23.085Z,510
2023-09-01T10:25:24.820Z,510
2023-09-01T10:26:27.676Z,509.6
2023-09-01T10:27:32.033Z,509.5
2023-09-01T10:28:33.772Z,509.4
2023-09-01T10:29:35.586Z,509.6
2023-09-01T10:30:37.708Z,509.6
2023-09-01T10:31:39.627Z,509.7
2023-09-01T10:32:41.638Z,509.4
2023-09-01T10:33:43.731Z,509.8
2023-09-01T10:34:45.636Z,510
2023-09-01T10:35:47.411Z,510
2023-09-01T10:36:49.167Z,510.5
2023-09-01T10:37:50.962Z,510
2023-09-01T10:38:52.707Z,510.2
2023-09-01T10:39:54.419Z,510.1
2023-09-01T10:40:56.180Z,510.5
2023-09-01T10:41:58.035Z,510.6
2023-09-01T10:42:59.784Z,510.7
2023-09-01T10:44:01.505Z,510.5
2023-09-01T10:45:03.353Z,510.6
2023-09-01T10:46:05.227Z,510.4
2023-09-01T10:47:07.054Z,510.4
2023-09-01T10:48:09.070Z,510.3
2023-09-01T10:49:10.814Z,511
2023-09-01T10:50:12.533Z,511
2023-09-01T10:51:14.313Z,511.6
2023-09-01T10:52:16.126Z,511.3
2023-09-01T10:53:17.821Z,511.5
2023-09-01T10:54:19.644Z,511.9
2023-09-01T10:55:21.773Z,511.8
2023-09-01T10:56:23.523Z,511.4
2023-09-01T10:57:25.327Z,511.5
2023-09-01T10:58:27.222Z,511.4
2023-09-01T10:59:28.947Z,511.6
2023-09-01T11:00:31.092Z,511.6
2023-09-01T11:01:33.197Z,511.3
2023-09-01T11:02:35.358Z,511.9
2023-09-01T11:03:37.169Z,512
2023-09-01T11:04:38.915Z,512.1
2023-09-01T11:05:40.673Z,512.2
2023-09-01T11:06:42.408Z,512.2
2023-09-01T11:07:44.111Z,512.6
2023-09-01T11:08:45.880Z,512.4
2023-09-01T11:09:47.608Z,513.1
2023-09-01T11:10:49.330Z,512.6
2023-09-01T11:11:51.236Z,513.1
2023-09-01T11:12:52.977Z,513.3
2023-09-01T11:13:54.751Z,514
2023-09-01T11:14:56.484Z,513.2
2023-09-01T11:15:58.383Z,513.3
2023-09-01T11:17:00.340Z,513.6
2023-09-01T11:18:02.368Z,513.9
2023-09-01T11:19:04.508Z,513.8
2023-09-01T11:20:09.059Z,513.8
2023-09-01T11:21:10.921Z,513.9
2023-09-01T11:22:12.658Z,514.1
2023-09-01T11:23:14.368Z,514.3
2023-09-01T11:24:16.079Z,513.9
2023-09-01T11:25:17.863Z,514.1
2023-09-01T11:26:19.610Z,514.6
2023-09-01T11:27:21.402Z,514.3
2023-09-01T11:28:23.177Z,514.3
2023-09-01T11:29:24.901Z,514.5
2023-09-01T11:30:26.617Z,514.7
2023-09-01T11:31:28.320Z,514.8
2023-09-01T11:32:30.868Z,514.8
2023-09-01T11:33:33.322Z,515.1
2023-09-01T11:34:35.402Z,515.2
2023-09-01T11:35:37.150Z,515.4
2023-09-01T11:36:38.958Z,515.6
2023-09-01T11:37:40.711Z,515.8
2023-09-01T11:38:42.612Z,515.9
2023-09-01T11:39:44.338Z,515.8
2023-09-01T11:40:46.596Z,515.8
2023-09-01T11:41:48.506Z,515.8
2023-09-01T11:42:50.341Z,515.4
2023-09-01T11:43:52.089Z,515.8
2023-09-01T11:44:53.844Z,515.8
2023-09-01T11:45:55.847Z,516.2
2023-09-01T11:46:57.650Z,516.6
2023-09-01T11:47:59.431Z,516.3
2023-09-01T11:49:01.153Z,516.3
2023-09-01T11:50:02.920Z,516.3
2023-09-01T11:51:04.627Z,516.5
2023-09-01T11:52:06.370Z,516.7
2023-09-01T11:53:08.107Z,516.7
2023-09-01T11:54:09.872Z,516.8
2023-09-01T11:55:12.329Z,516.7
2023-09-01T11:56:14.055Z,516.9
2023-09-01T11:57:15.890Z,516.8
2023-09-01T11:58:17.610Z,516.7
2023-09-01T11:59:19.375Z,517
2023-09-01T12:00:21.393Z,516.7
2023-09-01T12:01:23.473Z,516.8
2023-09-01T12:02:25.698Z,516.6
2023-09-01T12:03:27.566Z,516.8
2023-09-01T12:04:29.291Z,517.1
2023-09-01T12:05:31.065Z,517.7
2023-09-01T12:06:32.748Z,517.7
2023-09-01T12:07:34.483Z,517.7
2023-09-01T12:08:36.187Z,517.5
2023-09-01T12:09:37.891Z,517.5
2023-09-01T12:10:39.724Z,517.8
2023-09-01T12:11:41.460Z,517.5
2023-09-01T12:12:43.279Z,517.8
2023-09-01T12:13:45.235Z,517.8
2023-09-01T12:14:47.063Z,517.6
2023-09-01T12:15:48.819Z,517.8
2023-09-01T12:16:54.709Z,517.6
2023-09-01T12:17:57.214Z,517.6
2023-09-01T12:18:59.074Z,517.5
2023-09-01T12:20:01.099Z,517.4
2023-09-01T12:21:02.829Z,518.1
2023-09-01T12:22:04.625Z,518.1
2023-09-01T12:23:06.317Z,518.4
2023-09-01T12:24:08.072Z,518
2023-09-01T12:25:09.849Z,518.4
2023-09-01T12:26:11.555Z,518.4
2023-09-01T12:27:13.493Z,518.6
2023-09-01T12:28:15.412Z,518.4
2023-09-01T12:29:17.228Z,518.1
2023-09-01T12:30:19.237Z,518.4
2023-09-01T12:31:21.188Z,518.2
2023-09-01T12:32:22.935Z,518.4
2023-09-01T12:33:24.990Z,518.5
2023-09-01T12:34:27.143Z,518.8
2023-09-01T12:35:29.216Z,518.9
2023-09-01T12:36:31.016Z,518.7
2023-09-01T12:37:33.010Z,519
2023-09-01T12:38:34.945Z,518.9
2023-09-01T12:39:36.714Z,519
2023-09-01T12:40:38.520Z,519
2023-09-01T12:41:40.279Z,519.6
2023-09-01T12:42:42.144Z,519.7
2023-09-01T12:43:44.113Z,519.8
2023-09-01T12:44:45.871Z,519.5
2023-09-01T12:45:47.808Z,519.4
2023-09-01T12:46:49.709Z,519.9
2023-09-01T12:47:51.533Z,519.5
2023-09-01T12:48:53.316Z,519.5
2023-09-01T12:49:58.116Z,519.5
2023-09-01T12:50:59.860Z,519.5
2023-09-01T12:52:04.558Z,519.6
2023-09-01T12:53:06.327Z,519.6
2023-09-01T12:54:08.038Z,519.5
2023-09-01T12:55:09.782Z,519.6
2023-09-01T12:56:11.943Z,519.4
2023-09-01T12:57:13.672Z,519.6
2023-09-01T12:58:15.477Z,519.8
2023-09-01T12:59:17.168Z,519.9
2023-09-01T13:00:18.926Z,520.2
2023-09-01T13:01:20.855Z,520.2
2023-09-01T13:02:22.805Z,520.2
2023-09-01T13:03:25.145Z,520.2
2023-09-01T13:04:26.982Z,520
2023-09-01T13:05:29.142Z,520.4
2023-09-01T13:06:31.024Z,520
2023-09-01T13:07:32.785Z,520.2
2023-09-01T13:08:34.515Z,520.4
2023-09-01T13:09:36.289Z,519.8
2023-09-01T13:10:38.084Z,520.1
2023-09-01T13:11:40.857Z,520.4
2023-09-01T13:12:42.908Z,519.9
2023-09-01T13:13:44.661Z,519.8
2023-09-01T13:14:46.406Z,520.3
2023-09-01T13:15:54.312Z,520.1
2023-09-01T13:16:56.036Z,520.2
2023-09-01T13:17:57.984Z,520.4
2023-09-01T13:18:59.855Z,520.5
2023-09-01T13:20:01.642Z,520.7
2023-09-01T13:21:03.532Z,520.6
2023-09-01T13:22:05.320Z,520.6
2023-09-01T13:23:07.098Z,520.4
2023-09-01T13:24:08.859Z,520.2
2023-09-01T13:25:13.461Z,520.2
2023-09-01T13:26:15.232Z,520.2